createdAt,value
2018-01-30T00:00:20.523Z,0.00
2018-01-30T00:01:20.524Z,0.00
2018-01-30T00:02:20.527Z,0.00
2018-01-30T00:03:20.525Z,0.00
2018-01-30T00:04:20.532Z,0.00
2018-01-30T00:05:20.543Z,0.00
2018-01-30T00:06:20.533Z,4.00
2018-01-30T00:07:20.538Z,0.00
2018-01-30T00:08:20.544Z,0.00
2018-01-30T00:09:20.543Z,0.00
2018-01-30T00:10:20.591Z,0.00
2018-01-30T00:11:20.546Z,0.00
2018-01-30T00:12:20.557Z,0.00
2018-01-30T00:13:20.570Z,0.00
2018-01-30T00:14:20.579Z,0.00
2018-01-30T00:15:20.558Z,0.00
2018-01-30T00:16:20.558Z,0.00
2018-01-30T00:17:20.567Z,0.00
2018-01-30T00:18:20.572Z,0.00
2018-01-30T00:19:20.569Z,0.00
2018-01-30T00:20:20.574Z,0.00
2018-01-30T00:21:20.574Z,0.00
2018-01-30T00:22:20.579Z,0.00
2018-01-30T00:23:20.578Z,0.00
2018-01-30T00:24:20.586Z,0.00
2018-01-30T00:25:20.584Z,0.00
2018-01-30T00:26:20.591Z,0.00
2018-01-30T00:27:20.588Z,0.00
2018-01-30T00:28:20.596Z,0.00
2018-01-30T00:29:20.597Z,0.00
2018-01-30T00:30:20.600Z,0.00
2018-01-30T00:31:20.600Z,0.00
2018-01-30T00:32:20.605Z,0.00
2018-01-30T00:33:20.604Z,0.00
2018-01-30T00:34:20.613Z,0.00
2018-01-30T00:35:20.609Z,0.00
2018-01-30T00:36:20.619Z,0.00
2018-01-30T00:37:20.618Z,0.00
2018-01-30T00:38:20.618Z,0.00
2018-01-30T00:39:20.626Z,0.00
2018-01-30T00:40:20.626Z,0.00
2018-01-30T00:41:20.629Z,0.00
2018-01-30T00:42:20.630Z,0.00
2018-01-30T00:43:20.637Z,0.00
2018-01-30T00:44:20.643Z,0.00
2018-01-30T00:45:20.640Z,0.00
2018-01-30T00:46:20.637Z,0.00
2018-01-30T00:47:20.646Z,0.00
2018-01-30T00:48:20.650Z,0.00
2018-01-30T00:49:20.649Z,0.00
2018-01-30T00:50:20.651Z,0.00
2018-01-30T00:51:20.660Z,0.00
2018-01-30T00:52:20.660Z,0.00
2018-01-30T00:53:21.252Z,0.00
2018-01-30T00:54:20.660Z,0.00
2018-01-30T00:55:20.667Z,0.00
2018-01-30T00:56:20.672Z,0.00
2018-01-30T00:57:20.669Z,0.00
2018-01-30T00:58:20.671Z,0.00
2018-01-30T00:59:20.678Z,0.00
2018-01-30T01:00:20.683Z,0.00
2018-01-30T01:01:20.682Z,0.00
2018-01-30T01:02:20.683Z,0.00
2018-01-30T01:03:20.691Z,0.00
2018-01-30T01:04:20.694Z,0.00
2018-01-30T01:05:20.691Z,0.00
2018-01-30T01:06:20.694Z,0.00
2018-01-30T01:07:20.748Z,0.00
2018-01-30T01:08:20.699Z,0.00
2018-01-30T01:09:20.705Z,0.00
2018-01-30T01:10:20.704Z,0.00
2018-01-30T01:11:20.711Z,0.00
2018-01-30T01:12:20.707Z,0.00
2018-01-30T01:13:20.713Z,0.00
2018-01-30T01:14:20.714Z,0.00
2018-01-30T01:15:20.721Z,0.00
2018-01-30T01:16:20.717Z,0.00
2018-01-30T01:17:20.725Z,0.00
2018-01-30T01:18:20.728Z,0.00
2018-01-30T01:19:20.732Z,0.00
2018-01-30T01:20:20.729Z,0.00
2018-01-30T01:21:20.735Z,0.00
2018-01-30T01:22:20.735Z,0.00
2018-01-30T01:23:20.741Z,0.00
2018-01-30T01:24:20.738Z,0.00
2018-01-30T01:25:20.745Z,0.00
2018-01-30T01:26:20.749Z,0.00
2018-01-30T01:27:20.748Z,0.00
2018-01-30T01:28:20.746Z,0.00
2018-01-30T01:29:20.760Z,0.00
2018-01-30T01:30:20.754Z,0.00
2018-01-30T01:31:20.756Z,0.00
2018-01-30T01:32:20.759Z,0.00
2018-01-30T01:33:20.761Z,0.00
2018-01-30T01:34:20.766Z,0.00
2018-01-30T01:35:20.769Z,0.00
2018-01-30T01:36:20.770Z,0.00
2018-01-30T01:37:20.772Z,0.00
2018-01-30T01:38:20.776Z,0.00
2018-01-30T01:39:20.773Z,0.00
2018-01-30T01:40:20.777Z,0.00
2018-01-30T01:41:20.777Z,0.00
2018-01-30T01:42:20.782Z,0.00
2018-01-30T01:43:20.786Z,0.00
2018-01-30T01:44:20.786Z,0.00
2018-01-30T01:45:20.788Z,0.00
2018-01-30T01:46:20.791Z,0.00
2018-01-30T01:47:20.790Z,0.00
2018-01-30T01:48:20.796Z,0.00
2018-01-30T01:49:20.797Z,0.00
2018-01-30T01:50:20.796Z,0.00
2018-01-30T01:51:20.806Z,0.00
2018-01-30T01:52:20.808Z,0.00
2018-01-30T01:53:20.806Z,0.00
2018-01-30T01:54:20.808Z,0.00
2018-01-30T01:55:20.813Z,0.00
2018-01-30T01:56:20.812Z,0.00
2018-01-30T01:57:20.817Z,0.00
2018-01-30T01:58:20.819Z,0.00
2018-01-30T01:59:20.822Z,0.00
2018-01-30T02:00:20.821Z,0.00
2018-01-30T02:01:20.825Z,0.00
2018-01-30T02:02:20.828Z,0.00
2018-01-30T02:03:20.824Z,0.00
2018-01-30T02:04:20.829Z,0.00
2018-01-30T02:05:20.830Z,0.00
2018-01-30T02:06:20.833Z,0.00
2018-01-30T02:07:20.843Z,0.00
2018-01-30T02:08:20.841Z,0.00
2018-01-30T02:09:20.842Z,0.00
2018-01-30T02:10:20.841Z,0.00
2018-01-30T02:11:20.845Z,0.00
2018-01-30T02:12:20.849Z,0.00
2018-01-30T02:13:20.848Z,0.00
2018-01-30T02:14:20.849Z,0.00
2018-01-30T02:15:20.857Z,0.00
2018-01-30T02:16:20.861Z,0.00
2018-01-30T02:17:20.855Z,0.00
2018-01-30T02:18:20.858Z,0.00
2018-01-30T02:19:20.865Z,0.00
2018-01-30T02:20:20.861Z,0.00
2018-01-30T02:21:20.867Z,0.00
2018-01-30T02:22:20.865Z,0.00
2018-01-30T02:23:20.874Z,0.00
2018-01-30T02:24:20.868Z,0.00
2018-01-30T02:25:20.876Z,0.00
2018-01-30T02:26:20.875Z,0.00
2018-01-30T02:27:21.779Z,0.00
2018-01-30T02:28:20.877Z,0.00
2018-01-30T02:29:20.882Z,0.00
2018-01-30T02:30:20.881Z,0.00
2018-01-30T02:31:20.884Z,0.00
2018-01-30T02:32:20.883Z,0.00
2018-01-30T02:33:20.888Z,0.00
2018-01-30T02:34:20.891Z,0.00
2018-01-30T02:35:20.889Z,0.00
2018-01-30T02:36:20.898Z,0.00
2018-01-30T02:37:20.896Z,0.00
2018-01-30T02:38:20.900Z,0.00
2018-01-30T02:39:20.900Z,0.00
2018-01-30T02:40:20.904Z,0.00
2018-01-30T02:41:20.900Z,0.00
2018-01-30T02:42:20.910Z,0.00
2018-01-30T02:43:20.905Z,0.00
2018-01-30T02:44:20.911Z,0.00
2018-01-30T02:45:20.913Z,0.00
2018-01-30T02:46:20.911Z,0.00
2018-01-30T02:47:20.916Z,0.00
2018-01-30T02:48:20.918Z,0.00
2018-01-30T02:49:20.916Z,0.00
2018-01-30T02:50:20.919Z,0.00
2018-01-30T02:51:20.918Z,0.00
2018-01-30T02:52:20.924Z,0.00
2018-01-30T02:53:20.926Z,0.00
2018-01-30T02:54:20.928Z,0.00
2018-01-30T02:55:20.928Z,0.00
2018-01-30T02:56:20.925Z,0.00
2018-01-30T02:57:20.935Z,0.00
2018-01-30T02:58:20.933Z,0.00
2018-01-30T02:59:20.933Z,0.00
2018-01-30T03:00:20.935Z,0.00
2018-01-30T03:01:20.939Z,0.00
2018-01-30T03:02:20.938Z,0.00
2018-01-30T03:03:20.941Z,0.00
2018-01-30T03:04:20.947Z,0.00
2018-01-30T03:05:20.948Z,0.00
2018-01-30T03:06:20.945Z,0.00
2018-01-30T03:07:20.949Z,0.00
2018-01-30T03:08:20.949Z,0.00
2018-01-30T03:09:20.954Z,0.00
2018-01-30T03:10:20.958Z,0.00
2018-01-30T03:11:20.952Z,0.00
2018-01-30T03:12:20.956Z,0.00
2018-01-30T03:13:20.962Z,0.00
2018-01-30T03:14:20.959Z,0.00
2018-01-30T03:15:20.961Z,0.00
2018-01-30T03:16:20.966Z,0.00
2018-01-30T03:17:20.968Z,0.00
2018-01-30T03:18:20.968Z,0.00
2018-01-30T03:19:20.966Z,0.00
2018-01-30T03:20:20.969Z,0.00
2018-01-30T03:21:23.493Z,0.00
2018-01-30T03:22:22.583Z,0.00
2018-01-30T03:23:20.979Z,0.00
2018-01-30T03:24:20.974Z,0.00
2018-01-30T03:25:20.978Z,0.00
2018-01-30T03:26:20.978Z,0.00
2018-01-30T03:27:20.985Z,0.00
2018-01-30T03:28:20.980Z,0.00
2018-01-30T03:29:20.988Z,0.00
2018-01-30T03:30:20.984Z,0.00
2018-01-30T03:31:20.990Z,0.00
2018-01-30T03:32:20.988Z,0.00
2018-01-30T03:33:20.992Z,0.00
2018-01-30T03:34:20.996Z,0.00
2018-01-30T03:35:20.991Z,0.00
2018-01-30T03:36:21.000Z,0.00
2018-01-30T03:37:20.997Z,0.00
2018-01-30T03:38:21.003Z,0.00
2018-01-30T03:39:21.002Z,0.00
2018-01-30T03:40:21.005Z,0.00
2018-01-30T03:41:21.000Z,0.00
2018-01-30T03:42:21.008Z,0.00
2018-01-30T03:43:21.003Z,0.00
2018-01-30T03:44:21.009Z,0.00
2018-01-30T03:45:21.007Z,0.00
2018-01-30T03:46:21.014Z,0.00
2018-01-30T03:47:21.010Z,0.00
2018-01-30T03:48:21.012Z,0.00
2018-01-30T03:49:21.015Z,0.00
2018-01-30T03:50:21.012Z,0.00
2018-01-30T03:51:21.019Z,0.00
2018-01-30T03:52:21.022Z,0.00
2018-01-30T03:53:21.024Z,0.00
2018-01-30T03:54:21.020Z,0.00
2018-01-30T03:55:21.022Z,0.00
2018-01-30T03:56:21.027Z,0.00
2018-01-30T03:57:21.030Z,0.00
2018-01-30T03:58:21.029Z,0.00
2018-01-30T03:59:21.029Z,0.00
2018-01-30T04:00:21.029Z,0.00
2018-01-30T04:01:21.037Z,0.00
2018-01-30T04:02:21.038Z,0.00
2018-01-30T04:03:21.035Z,0.00
2018-01-30T04:04:21.043Z,0.00
2018-01-30T04:05:21.033Z,0.00
2018-01-30T04:06:21.041Z,0.00
2018-01-30T04:07:21.051Z,0.00
2018-01-30T04:08:21.038Z,0.00
2018-01-30T04:09:21.045Z,0.00
2018-01-30T04:10:21.042Z,0.00
2018-01-30T04:11:21.050Z,0.00
2018-01-30T04:12:21.045Z,0.00
2018-01-30T04:13:21.052Z,0.00
2018-01-30T04:14:21.052Z,0.00
2018-01-30T04:15:21.049Z,0.00
2018-01-30T04:16:21.055Z,0.00
2018-01-30T04:17:21.057Z,0.00
2018-01-30T04:18:21.058Z,0.00
2018-01-30T04:19:21.056Z,0.00
2018-01-30T04:20:21.056Z,0.00
2018-01-30T04:21:21.062Z,0.00
2018-01-30T04:22:21.060Z,0.00
2018-01-30T04:23:21.061Z,0.00
2018-01-30T04:24:21.066Z,0.00
2018-01-30T04:25:21.065Z,0.00
2018-01-30T04:26:21.068Z,0.00
2018-01-30T04:27:21.072Z,0.00
2018-01-30T04:28:21.070Z,0.00
2018-01-30T04:29:21.074Z,0.00
2018-01-30T04:30:21.070Z,0.00
2018-01-30T04:31:21.075Z,0.00
2018-01-30T04:32:21.074Z,0.00
2018-01-30T04:33:21.078Z,0.00
2018-01-30T04:34:21.076Z,0.00
2018-01-30T04:35:21.081Z,0.00
2018-01-30T04:36:21.079Z,0.00
2018-01-30T04:37:21.099Z,0.00
2018-01-30T04:38:21.089Z,0.00
2018-01-30T04:39:21.086Z,0.00
2018-01-30T04:40:21.083Z,0.00
2018-01-30T04:41:21.088Z,0.00
2018-01-30T04:42:21.102Z,0.00
2018-01-30T04:43:21.092Z,0.00
2018-01-30T04:44:21.094Z,0.00
2018-01-30T04:45:21.091Z,0.00
2018-01-30T04:46:21.092Z,0.00
2018-01-30T04:47:21.096Z,0.00
2018-01-30T04:48:21.098Z,0.00
2018-01-30T04:49:21.095Z,0.00
2018-01-30T04:50:21.097Z,0.00
2018-01-30T04:51:21.123Z,0.00
2018-01-30T04:52:21.103Z,0.00
2018-01-30T04:53:21.102Z,0.00
2018-01-30T04:54:21.102Z,0.00
2018-01-30T04:55:21.105Z,4.00
2018-01-30T04:56:21.108Z,0.00
2018-01-30T04:57:21.104Z,0.00
2018-01-30T04:58:21.108Z,0.00
2018-01-30T04:59:21.114Z,0.00
2018-01-30T05:00:21.110Z,4.00
2018-01-30T05:01:21.115Z,0.00
2018-01-30T05:02:21.114Z,0.00
2018-01-30T05:03:21.117Z,0.00
2018-01-30T05:04:21.114Z,0.00
2018-01-30T05:05:21.119Z,0.00
2018-01-30T05:06:21.118Z,0.00
2018-01-30T05:07:21.119Z,0.00
2018-01-30T05:08:21.125Z,0.00
2018-01-30T05:09:21.122Z,0.00
2018-01-30T05:10:21.121Z,4.00
2018-01-30T05:11:21.126Z,0.00
2018-01-30T05:12:21.130Z,0.00
2018-01-30T05:13:21.809Z,0.00
2018-01-30T05:14:21.124Z,0.00
2018-01-30T05:15:21.134Z,0.00
2018-01-30T05:16:21.132Z,0.00
2018-01-30T05:17:21.130Z,0.00
2018-01-30T05:18:21.137Z,0.00
2018-01-30T05:19:21.135Z,4.00
2018-01-30T05:20:21.139Z,0.00
2018-01-30T05:21:21.137Z,0.00
2018-01-30T05:22:21.136Z,4.00
2018-01-30T05:23:21.137Z,0.00
2018-01-30T05:24:21.144Z,0.00
2018-01-30T05:25:21.142Z,0.00
2018-01-30T05:26:21.143Z,0.00
2018-01-30T05:27:21.144Z,0.00
2018-01-30T05:28:21.151Z,4.00
2018-01-30T05:29:21.150Z,0.00
2018-01-30T05:30:21.149Z,0.00
2018-01-30T05:31:21.149Z,0.00
2018-01-30T05:32:21.151Z,0.00
2018-01-30T05:33:21.157Z,0.00
2018-01-30T05:34:21.153Z,4.00
2018-01-30T05:35:21.159Z,0.00
2018-01-30T05:36:21.157Z,0.00
2018-01-30T05:37:21.161Z,4.00
2018-01-30T05:38:21.158Z,4.00
2018-01-30T05:39:21.165Z,0.00
2018-01-30T05:40:21.165Z,0.00
2018-01-30T05:41:21.171Z,4.00
2018-01-30T05:42:21.165Z,0.00
2018-01-30T05:43:21.170Z,0.00
2018-01-30T05:44:22.425Z,0.00
2018-01-30T05:45:21.174Z,0.00
2018-01-30T05:46:21.172Z,0.00
2018-01-30T05:47:21.177Z,4.00
2018-01-30T05:48:21.180Z,0.00
2018-01-30T05:49:21.216Z,0.00
2018-01-30T05:50:21.177Z,0.00
2018-01-30T05:51:21.180Z,4.00
2018-01-30T05:52:21.183Z,0.00
2018-01-30T05:53:21.185Z,0.00
2018-01-30T05:54:21.182Z,0.00
2018-01-30T05:55:21.190Z,0.00
2018-01-30T05:56:21.191Z,0.00
2018-01-30T05:57:21.198Z,0.00
2018-01-30T05:58:21.218Z,0.00
2018-01-30T05:59:21.237Z,0.00
2018-01-30T06:00:21.238Z,0.00
2018-01-30T06:01:21.228Z,0.00
2018-01-30T06:02:21.195Z,0.00
2018-01-30T06:03:21.200Z,0.00
2018-01-30T06:04:21.215Z,4.00
2018-01-30T06:05:21.202Z,4.00
2018-01-30T06:06:21.200Z,0.00
2018-01-30T06:07:21.207Z,0.00
2018-01-30T06:08:21.210Z,0.00
2018-01-30T06:09:21.204Z,0.00
2018-01-30T06:10:21.207Z,0.00
2018-01-30T06:11:21.214Z,0.00
2018-01-30T06:12:21.215Z,0.00
2018-01-30T06:13:21.233Z,0.00
2018-01-30T06:14:21.216Z,0.00
2018-01-30T06:15:21.223Z,4.00
2018-01-30T06:16:21.219Z,0.00
2018-01-30T06:17:21.218Z,0.00
2018-01-30T06:18:21.221Z,0.00
2018-01-30T06:19:21.224Z,4.00
2018-01-30T06:20:21.226Z,4.00
2018-01-30T06:21:21.277Z,0.00
2018-01-30T06:22:21.223Z,4.00
2018-01-30T06:23:21.230Z,0.00
2018-01-30T06:24:21.232Z,0.00
2018-01-30T06:25:21.230Z,4.00
2018-01-30T06:26:21.233Z,4.00
2018-01-30T06:27:21.236Z,4.00
2018-01-30T06:28:21.238Z,4.00
2018-01-30T06:29:21.273Z,4.00
2018-01-30T06:30:21.243Z,4.00
2018-01-30T06:31:21.247Z,4.00
2018-01-30T06:32:21.248Z,0.00
2018-01-30T06:33:21.238Z,0.00
2018-01-30T06:34:21.245Z,4.00
2018-01-30T06:35:21.248Z,4.00
2018-01-30T06:36:21.253Z,0.00
2018-01-30T06:37:21.249Z,4.00
2018-01-30T06:38:21.248Z,4.00
2018-01-30T06:39:21.245Z,4.00
2018-01-30T06:40:21.254Z,4.00
2018-01-30T06:41:21.259Z,4.00
2018-01-30T06:42:21.260Z,8.00
2018-01-30T06:43:21.258Z,4.00
2018-01-30T06:44:21.272Z,8.00
2018-01-30T06:45:21.278Z,8.00
2018-01-30T06:46:21.264Z,8.00
2018-01-30T06:47:21.270Z,12.00
2018-01-30T06:48:21.264Z,12.00
2018-01-30T06:49:21.266Z,16.00
2018-01-30T06:50:21.271Z,20.00
2018-01-30T06:51:21.267Z,24.00
2018-01-30T06:52:21.272Z,28.00
2018-01-30T06:53:21.319Z,28.00
2018-01-30T06:54:21.278Z,36.00
2018-01-30T06:55:21.281Z,40.00
2018-01-30T06:56:21.271Z,48.00
2018-01-30T06:57:21.274Z,52.00
2018-01-30T06:58:21.277Z,64.00
2018-01-30T06:59:21.276Z,68.00
2018-01-30T07:00:21.280Z,80.00
2018-01-30T07:01:21.291Z,88.00
2018-01-30T07:02:21.290Z,96.00
2018-01-30T07:03:21.285Z,108.00
2018-01-30T07:04:21.282Z,124.00
2018-01-30T07:05:21.289Z,136.00
2018-01-30T07:06:21.283Z,148.00
2018-01-30T07:07:21.314Z,164.00
2018-01-30T07:08:21.288Z,176.00
2018-01-30T07:09:21.293Z,196.00
2018-01-30T07:10:21.293Z,208.00
2018-01-30T07:11:21.414Z,228.00
2018-01-30T07:12:21.293Z,240.00
2018-01-30T07:13:21.300Z,256.00
2018-01-30T07:14:21.302Z,276.00
2018-01-30T07:15:21.298Z,300.00
2018-01-30T07:16:21.297Z,316.00
2018-01-30T07:17:21.304Z,340.00
2018-01-30T07:18:21.301Z,368.00
2018-01-30T07:19:21.302Z,396.00
2018-01-30T07:20:21.305Z,420.00
2018-01-30T07:21:21.310Z,448.00
2018-01-30T07:22:21.309Z,480.00
2018-01-30T07:23:21.307Z,512.00
2018-01-30T07:24:21.309Z,536.00
2018-01-30T07:25:21.316Z,568.00
2018-01-30T07:26:21.310Z,608.00
2018-01-30T07:27:21.316Z,640.00
2018-01-30T07:28:21.316Z,676.00
2018-01-30T07:29:21.322Z,716.00
2018-01-30T07:30:21.317Z,752.00
2018-01-30T07:31:21.318Z,784.00
2018-01-30T07:32:21.440Z,816.00
2018-01-30T07:33:21.327Z,844.00
2018-01-30T07:34:21.322Z,864.00
2018-01-30T07:35:21.326Z,880.00
2018-01-30T07:36:21.325Z,920.00
2018-01-30T07:37:21.326Z,984.00
2018-01-30T07:38:21.326Z,1004.00
2018-01-30T07:39:21.330Z,1040.00
2018-01-30T07:40:21.333Z,1060.00
2018-01-30T07:41:21.332Z,1076.00
2018-01-30T07:42:21.334Z,1084.00
2018-01-30T07:43:21.336Z,1020.00
2018-01-30T07:44:21.339Z,880.00
2018-01-30T07:45:21.336Z,968.00
2018-01-30T07:46:21.342Z,1028.00
2018-01-30T07:47:21.459Z,1156.00
2018-01-30T07:48:21.372Z,1108.00
2018-01-30T07:49:21.344Z,1060.00
2018-01-30T07:50:21.347Z,1016.00
2018-01-30T07:51:21.344Z,836.00
2018-01-30T07:52:21.353Z,836.00
2018-01-30T07:53:21.349Z,828.00
2018-01-30T07:54:21.350Z,800.00
2018-01-30T07:55:21.354Z,872.00
2018-01-30T07:56:21.357Z,852.00
2018-01-30T07:57:21.355Z,772.00
2018-01-30T07:58:21.355Z,776.00
2018-01-30T07:59:21.412Z,808.00
2018-01-30T08:00:21.360Z,716.00
2018-01-30T08:01:21.360Z,776.00
2018-01-30T08:02:21.365Z,704.00
2018-01-30T08:03:21.364Z,672.00
2018-01-30T08:04:21.367Z,664.00
2018-01-30T08:05:21.369Z,696.00
2018-01-30T08:06:21.366Z,580.00
2018-01-30T08:07:21.372Z,528.00
2018-01-30T08:08:21.374Z,532.00
2018-01-30T08:09:21.386Z,548.00
2018-01-30T08:10:21.373Z,592.00
2018-01-30T08:11:21.373Z,644.00
2018-01-30T08:12:21.382Z,648.00
2018-01-30T08:13:21.448Z,696.00
2018-01-30T08:14:21.380Z,720.00
2018-01-30T08:15:21.386Z,648.00
2018-01-30T08:16:21.387Z,680.00
2018-01-30T08:17:21.386Z,764.00
2018-01-30T08:18:21.389Z,920.00
2018-01-30T08:19:21.393Z,796.00
2018-01-30T08:20:21.392Z,676.00
2018-01-30T08:21:21.398Z,728.00
2018-01-30T08:22:21.395Z,676.00
2018-01-30T08:23:21.402Z,612.00
2018-01-30T08:24:21.407Z,620.00
2018-01-30T08:25:21.405Z,616.00
2018-01-30T08:26:21.404Z,724.00
2018-01-30T08:27:21.405Z,800.00
2018-01-30T08:28:21.412Z,800.00
2018-01-30T08:29:21.408Z,788.00
2018-01-30T08:30:21.412Z,708.00
2018-01-30T08:31:21.417Z,756.00
2018-01-30T08:32:21.419Z,788.00
2018-01-30T08:33:21.530Z,900.00
2018-01-30T08:34:21.472Z,956.00
2018-01-30T08:35:21.453Z,1100.00
2018-01-30T08:36:21.453Z,1112.00
2018-01-30T08:37:21.427Z,968.00
2018-01-30T08:38:21.445Z,984.00
2018-01-30T08:39:21.433Z,1016.00
2018-01-30T08:40:21.433Z,900.00
2018-01-30T08:41:21.440Z,912.00
2018-01-30T08:42:21.436Z,972.00
2018-01-30T08:43:21.439Z,1084.00
2018-01-30T08:44:21.442Z,1444.00
2018-01-30T08:45:21.447Z,3392.00
2018-01-30T08:46:21.444Z,3772.00
2018-01-30T08:47:21.449Z,2908.00
2018-01-30T08:48:21.449Z,4892.00
2018-01-30T08:49:21.458Z,4144.00
2018-01-30T08:50:21.486Z,3436.00
2018-01-30T08:51:21.463Z,4380.00
2018-01-30T08:52:21.460Z,4044.00
2018-01-30T08:53:21.461Z,6544.00
2018-01-30T08:54:21.462Z,2540.00
2018-01-30T08:55:21.467Z,1960.00
2018-01-30T08:56:21.475Z,3508.00
2018-01-30T08:57:21.471Z,6024.00
2018-01-30T08:58:21.507Z,3536.00
2018-01-30T08:59:21.481Z,6084.00
2018-01-30T09:00:21.486Z,5892.00
2018-01-30T09:01:21.485Z,5648.00
2018-01-30T09:02:21.487Z,4232.00
2018-01-30T09:03:21.492Z,3892.00
2018-01-30T09:04:21.496Z,4772.00
2018-01-30T09:05:21.494Z,4972.00
2018-01-30T09:06:21.497Z,3500.00
2018-01-30T09:07:21.505Z,2784.00
2018-01-30T09:08:21.504Z,2952.00
2018-01-30T09:09:21.504Z,2520.00
2018-01-30T09:10:21.512Z,2780.00
2018-01-30T09:11:21.511Z,2472.00
2018-01-30T09:12:21.519Z,1932.00
2018-01-30T09:13:21.528Z,1872.00
2018-01-30T09:14:21.525Z,1964.00
2018-01-30T09:15:21.524Z,2048.00
2018-01-30T09:16:21.532Z,2272.00
2018-01-30T09:17:21.531Z,2212.00
2018-01-30T09:18:21.539Z,2280.00
2018-01-30T09:19:21.537Z,4060.00
2018-01-30T09:20:21.542Z,5224.00
2018-01-30T09:21:21.542Z,22368.00
2018-01-30T09:22:21.551Z,6244.00
2018-01-30T09:23:21.549Z,5164.00
2018-01-30T09:24:21.554Z,15256.00
2018-01-30T09:25:21.598Z,13604.00
2018-01-30T09:26:21.559Z,39712.00
2018-01-30T09:27:21.565Z,22432.00
2018-01-30T09:28:21.566Z,13720.00
2018-01-30T09:29:21.571Z,15680.00
2018-01-30T09:30:21.568Z,5740.00
2018-01-30T09:31:21.577Z,6384.00
2018-01-30T09:32:21.578Z,7596.00
2018-01-30T09:33:21.585Z,3024.00
2018-01-30T09:34:21.583Z,2780.00
2018-01-30T09:35:21.584Z,4308.00
2018-01-30T09:36:21.589Z,5016.00
2018-01-30T09:37:21.603Z,5328.00
2018-01-30T09:38:21.600Z,2964.00
2018-01-30T09:39:21.611Z,2696.00
2018-01-30T09:40:21.611Z,2828.00
2018-01-30T09:41:21.611Z,3884.00
2018-01-30T09:42:21.614Z,6468.00
2018-01-30T09:43:21.621Z,4172.00
2018-01-30T09:44:21.628Z,2908.00
2018-01-30T09:45:21.629Z,2500.00
2018-01-30T09:46:21.624Z,2804.00
2018-01-30T09:47:21.637Z,2820.00
2018-01-30T09:48:21.641Z,3980.00
2018-01-30T09:49:21.662Z,3948.00
2018-01-30T09:50:21.643Z,4052.00
2018-01-30T09:51:21.650Z,3824.00
2018-01-30T09:52:21.658Z,3652.00
2018-01-30T09:53:21.655Z,2684.00
2018-01-30T09:54:21.658Z,2288.00
2018-01-30T09:55:21.667Z,2680.00
2018-01-30T09:56:21.669Z,3464.00
2018-01-30T09:57:21.668Z,4432.00
2018-01-30T09:58:21.671Z,3424.00
2018-01-30T09:59:21.680Z,2672.00
2018-01-30T10:00:21.683Z,3028.00
2018-01-30T10:01:21.682Z,2932.00
2018-01-30T10:02:21.684Z,3256.00
2018-01-30T10:03:21.693Z,3400.00
2018-01-30T10:04:21.696Z,5040.00
2018-01-30T10:05:21.697Z,5112.00
2018-01-30T10:06:21.702Z,4992.00
2018-01-30T10:07:21.702Z,5804.00
2018-01-30T10:08:21.710Z,6476.00
2018-01-30T10:09:21.710Z,4796.00
2018-01-30T10:10:21.720Z,5356.00
2018-01-30T10:11:21.717Z,3592.00
2018-01-30T10:12:21.724Z,3996.00
2018-01-30T10:13:21.723Z,3892.00
2018-01-30T10:14:21.729Z,4092.00
2018-01-30T10:15:21.729Z,3640.00
2018-01-30T10:16:21.739Z,5484.00
2018-01-30T10:17:21.739Z,18784.00
2018-01-30T10:18:21.742Z,7100.00
2018-01-30T10:19:21.743Z,6828.00
2018-01-30T10:20:21.747Z,9188.00
2018-01-30T10:21:21.754Z,8476.00
2018-01-30T10:22:21.766Z,7416.00
2018-01-30T10:23:21.762Z,7140.00
2018-01-30T10:24:21.766Z,5520.00
2018-01-30T10:25:21.772Z,3972.00
2018-01-30T10:26:21.771Z,4488.00
2018-01-30T10:27:21.778Z,5132.00
2018-01-30T10:28:21.780Z,6036.00
2018-01-30T10:29:21.791Z,6676.00
2018-01-30T10:30:21.790Z,3908.00
2018-01-30T10:31:21.794Z,2720.00
2018-01-30T10:32:21.796Z,2808.00
2018-01-30T10:33:21.800Z,3344.00
2018-01-30T10:34:21.805Z,3756.00
2018-01-30T10:35:21.814Z,8184.00
2018-01-30T10:36:21.814Z,7468.00
2018-01-30T10:37:21.816Z,6688.00
2018-01-30T10:38:21.819Z,5216.00
2018-01-30T10:39:21.828Z,3972.00
2018-01-30T10:40:21.831Z,3204.00
2018-01-30T10:41:21.834Z,2220.00
2018-01-30T10:42:21.834Z,3600.00
2018-01-30T10:43:21.844Z,5064.00
2018-01-30T10:44:21.847Z,4820.00
2018-01-30T10:45:21.850Z,4172.00
2018-01-30T10:46:21.852Z,3680.00
2018-01-30T10:47:21.860Z,3600.00
2018-01-30T10:48:21.863Z,4800.00
2018-01-30T10:49:21.867Z,11080.00
2018-01-30T10:50:21.869Z,4640.00
2018-01-30T10:51:21.876Z,3452.00
2018-01-30T10:52:21.877Z,2444.00
2018-01-30T10:53:21.881Z,2456.00
2018-01-30T10:54:21.887Z,2224.00
2018-01-30T10:55:21.885Z,2080.00
2018-01-30T10:56:21.892Z,1780.00
2018-01-30T10:57:21.900Z,1728.00
2018-01-30T10:58:21.904Z,1896.00
2018-01-30T10:59:21.904Z,2468.00
2018-01-30T11:00:21.911Z,3968.00
2018-01-30T11:01:21.916Z,3656.00
2018-01-30T11:02:21.915Z,2720.00
2018-01-30T11:03:21.920Z,2392.00
2018-01-30T11:04:21.943Z,2688.00
2018-01-30T11:05:21.928Z,2264.00
2018-01-30T11:06:21.932Z,2896.00
2018-01-30T11:07:21.935Z,3604.00
2018-01-30T11:08:21.948Z,4352.00
2018-01-30T11:09:21.943Z,4200.00
2018-01-30T11:10:21.946Z,3292.00
2018-01-30T11:11:21.954Z,2508.00
2018-01-30T11:12:21.960Z,2872.00
2018-01-30T11:13:21.961Z,6812.00
2018-01-30T11:14:21.963Z,5460.00
2018-01-30T11:15:21.967Z,3812.00
2018-01-30T11:16:21.970Z,2872.00
2018-01-30T11:17:21.979Z,2620.00
2018-01-30T11:18:21.977Z,2760.00
2018-01-30T11:19:21.993Z,2744.00
2018-01-30T11:20:21.987Z,3224.00
2018-01-30T11:21:21.994Z,4704.00
2018-01-30T11:22:21.989Z,5080.00
2018-01-30T11:23:22.003Z,5008.00
2018-01-30T11:24:22.002Z,3492.00
2018-01-30T11:25:22.012Z,2772.00
2018-01-30T11:26:22.010Z,2888.00
2018-01-30T11:27:22.016Z,3692.00
2018-01-30T11:28:22.018Z,3120.00
2018-01-30T11:29:22.023Z,3092.00
2018-01-30T11:30:22.022Z,2708.00
2018-01-30T11:31:22.034Z,2420.00
2018-01-30T11:32:22.036Z,2836.00
2018-01-30T11:33:22.043Z,5180.00
2018-01-30T11:34:22.044Z,4104.00
2018-01-30T11:35:22.044Z,3548.00
2018-01-30T11:36:22.057Z,3140.00
2018-01-30T11:37:22.063Z,2712.00
2018-01-30T11:38:22.061Z,2512.00
2018-01-30T11:39:22.067Z,2616.00
2018-01-30T11:40:22.069Z,2380.00
2018-01-30T11:41:22.069Z,2288.00
2018-01-30T11:42:22.076Z,2544.00
2018-01-30T11:43:22.073Z,2764.00
2018-01-30T11:44:22.085Z,2844.00
2018-01-30T11:45:22.085Z,2640.00
2018-01-30T11:46:22.093Z,2964.00
2018-01-30T11:47:22.091Z,3040.00
2018-01-30T11:48:22.095Z,3016.00
2018-01-30T11:49:22.104Z,3644.00
2018-01-30T11:50:22.105Z,3616.00
2018-01-30T11:51:22.113Z,3316.00
2018-01-30T11:52:22.117Z,3420.00
2018-01-30T11:53:22.126Z,3576.00
2018-01-30T11:54:22.122Z,4044.00
2018-01-30T11:55:22.123Z,3708.00
2018-01-30T11:56:22.130Z,3296.00
2018-01-30T11:57:22.131Z,3436.00
2018-01-30T11:58:22.137Z,4512.00
2018-01-30T11:59:22.183Z,4496.00
2018-01-30T12:00:22.145Z,5112.00
2018-01-30T12:01:22.146Z,3992.00
2018-01-30T12:02:22.147Z,3536.00
2018-01-30T12:03:22.157Z,4260.00
2018-01-30T12:04:22.163Z,6336.00
2018-01-30T12:05:22.168Z,4732.00
2018-01-30T12:06:22.167Z,5656.00
2018-01-30T12:07:22.174Z,4464.00
2018-01-30T12:08:22.176Z,4720.00
2018-01-30T12:09:22.177Z,5696.00
2018-01-30T12:10:22.177Z,5760.00
2018-01-30T12:11:22.185Z,5404.00
2018-01-30T12:12:22.188Z,5496.00
2018-01-30T12:13:22.197Z,5084.00
2018-01-30T12:14:22.194Z,5120.00
2018-01-30T12:15:22.203Z,5232.00
2018-01-30T12:16:22.203Z,4128.00
2018-01-30T12:17:22.211Z,3472.00
2018-01-30T12:18:22.215Z,3428.00
2018-01-30T12:19:22.220Z,4304.00
2018-01-30T12:20:22.220Z,4536.00
2018-01-30T12:21:22.226Z,4368.00
2018-01-30T12:22:22.227Z,4076.00
2018-01-30T12:23:22.234Z,3944.00
2018-01-30T12:24:22.281Z,3544.00
2018-01-30T12:25:22.245Z,3640.00
2018-01-30T12:26:22.243Z,3808.00
2018-01-30T12:27:22.255Z,3968.00
2018-01-30T12:28:22.259Z,4304.00
2018-01-30T12:29:22.256Z,3992.00
2018-01-30T12:30:22.261Z,4120.00
2018-01-30T12:31:22.265Z,4792.00
2018-01-30T12:32:22.271Z,4732.00
2018-01-30T12:33:22.272Z,3788.00
2018-01-30T12:34:22.280Z,3728.00
2018-01-30T12:35:22.280Z,3720.00
2018-01-30T12:36:22.279Z,4096.00
2018-01-30T12:37:22.296Z,4032.00
2018-01-30T12:38:22.293Z,3992.00
2018-01-30T12:39:22.298Z,4612.00
2018-01-30T12:40:22.306Z,4496.00
2018-01-30T12:41:22.305Z,3992.00
2018-01-30T12:42:22.305Z,4136.00
2018-01-30T12:43:22.315Z,4108.00
2018-01-30T12:44:22.319Z,3908.00
2018-01-30T12:45:22.332Z,3748.00
2018-01-30T12:46:22.328Z,3524.00